.
WxDataArchive / Data Records for 2006-07-20
2006-07-19 July 2006 2006-07-21

Data Records for Thursday, 20 July 2006

Time	Temp	Chill	HIndex	Humid	Dewpt	 Wind 	HiWind	WindDir	Rain 	Barom 
-----	----	-----	------	-----	-----	------	------	-------	-----	----- 
00:00	75.6	75.6	76.7	77	67.9	0	0	---	0.00	29.981 
00:05	75.3	75.3	76.2	78	68.0	0	0	---	0.00	29.981 
00:10	74.9	74.9	74.9	78	67.6	0	0	---	0.00	29.981 
00:15	74.6	74.6	74.6	79	67.6	0	0	---	0.00	29.984 
00:20	74.4	74.4	74.4	80	67.8	0	2	112	0.00	29.984 
00:25	74.2	74.2	74.2	80	67.6	0	0	---	0.00	29.984 
00:30	73.9	73.9	73.9	80	67.3	0	0	---	0.00	29.991 
00:35	73.9	73.9	73.9	81	67.7	0	1	112	0.00	29.991 
00:40	73.7	73.7	73.7	81	67.5	0	1	112	0.00	29.991 
00:45	73.5	73.5	73.5	82	67.7	0	1	112	0.00	29.988 
00:50	73.3	73.3	73.3	82	67.5	0	0	---	0.00	29.988 
00:55	73.2	73.2	73.2	82	67.4	0	0	---	0.00	29.988 
01:00	73.0	73.0	73.0	82	67.2	0	1	112	0.00	29.981 
01:05	73.2	73.2	73.2	82	67.4	0	1	112	0.00	29.981 
01:10	73.2	73.2	73.2	82	67.4	0	0	---	0.00	29.981 
01:15	73.0	73.0	73.0	82	67.2	0	0	---	0.00	29.978 
01:20	72.8	72.8	72.8	82	67.0	0	0	---	0.00	29.978 
01:25	72.7	72.7	72.7	82	66.9	0	0	---	0.00	29.978 
01:30	72.5	72.5	72.5	83	67.0	0	0	---	0.00	29.984 
01:35	72.3	72.3	72.3	83	66.8	0	0	---	0.00	29.984 
01:40	72.3	72.3	72.3	83	66.8	0	0	---	0.00	29.984 
01:45	72.3	72.3	72.3	83	66.8	0	0	---	0.00	29.973 
01:50	72.1	72.1	72.1	84	67.0	0	0	---	0.00	29.973 
01:55	72.0	72.0	72.0	84	66.9	0	0	---	0.00	29.973 
02:00	71.6	71.6	71.6	85	66.8	0	0	---	0.00	29.970 
02:05	71.6	71.6	71.6	86	67.2	0	1	112	0.00	29.970 
02:10	71.8	71.8	71.8	86	67.4	0	2	112	0.00	29.970 
02:15	72.0	72.0	72.0	85	67.2	0	2	112	0.00	29.961 
02:20	72.1	72.1	72.1	84	67.0	0	1	112	0.00	29.961 
02:25	72.3	72.3	72.3	84	67.2	0	1	112	0.00	29.961 
02:30	72.5	72.5	72.5	84	67.4	1	2	112	0.00	29.950 
02:35	72.7	72.7	72.7	83	67.2	0	1	112	0.00	29.950 
02:40	72.7	72.7	72.7	83	67.2	0	0	---	0.00	29.950 
02:45	72.7	72.7	72.7	83	67.2	0	0	---	0.00	29.949 
02:50	72.7	72.7	72.7	84	67.6	0	1	112	0.00	29.949 
02:55	72.5	72.5	72.5	84	67.4	0	0	---	0.00	29.949 
03:00	72.3	72.3	72.3	84	67.2	0	0	---	0.00	29.947 
03:05	72.1	72.1	72.1	84	67.0	0	0	---	0.00	29.947 
03:10	72.0	72.0	72.0	85	67.2	0	0	---	0.00	29.947 
03:15	71.8	71.8	71.8	86	67.4	0	0	---	0.00	29.946 
03:20	71.5	71.5	71.5	86	67.1	0	0	---	0.00	29.946 
03:25	71.3	71.3	71.3	87	67.2	0	0	---	0.00	29.946 
03:30	71.1	71.1	71.1	87	67.0	0	0	---	0.00	29.951 
03:35	71.1	71.1	71.1	87	67.0	0	0	---	0.00	29.951 
03:40	70.9	70.9	70.9	88	67.2	0	0	---	0.00	29.951 
03:45	70.9	70.9	70.9	88	67.2	0	0	---	0.00	29.954 
03:50	70.9	70.9	70.9	88	67.2	0	0	---	0.00	29.954 
03:55	70.9	70.9	70.9	88	67.2	0	0	---	0.00	29.954 
04:00	70.8	70.8	70.8	88	67.1	0	0	---	0.00	29.952 
04:05	70.8	70.8	70.8	88	67.1	0	0	---	0.00	29.952 
04:10	70.8	70.8	70.8	88	67.1	0	0	---	0.00	29.952 
04:15	70.8	70.8	70.8	89	67.4	0	0	---	0.00	29.953 
04:20	70.8	70.8	70.8	89	67.4	0	0	---	0.00	29.953 
04:25	70.8	70.8	70.8	89	67.4	0	0	---	0.00	29.953 
04:30	70.8	70.8	70.8	90	67.7	0	0	---	0.00	29.953 
04:35	70.8	70.8	70.8	89	67.4	0	0	---	0.00	29.953 
04:40	70.8	70.8	70.8	89	67.4	0	0	---	0.00	29.953 
04:45	70.8	70.8	70.8	89	67.4	0	0	---	0.00	29.950 
04:50	70.8	70.8	70.8	89	67.4	0	0	---	0.00	29.950 
04:55	70.9	70.9	70.9	90	67.8	0	0	---	0.00	29.950 
05:00	70.9	70.9	70.9	90	67.8	0	0	---	0.00	29.961 
05:05	70.9	70.9	70.9	90	67.8	0	0	---	0.00	29.961 
05:10	70.9	70.9	70.9	90	67.8	0	0	---	0.00	29.961 
05:15	71.1	71.1	71.1	89	67.7	0	0	---	0.00	29.954 
05:20	71.1	71.1	71.1	89	67.7	0	0	---	0.00	29.954 
05:25	71.3	71.3	71.3	89	67.9	0	0	---	0.00	29.954 
05:30	71.3	71.3	71.3	89	67.9	0	0	---	0.00	29.953 
05:35	71.3	71.3	71.3	89	67.9	0	0	---	0.00	29.953 
05:40	71.3	71.3	71.3	89	67.9	0	0	---	0.00	29.953 
05:45	71.3	71.3	71.3	89	67.9	0	0	---	0.00	29.958 
05:50	71.3	71.3	71.3	89	67.9	0	0	---	0.00	29.958 
05:55	71.5	71.5	71.5	88	67.7	0	0	---	0.00	29.958 
06:00	71.5	71.5	71.5	88	67.7	0	0	---	0.00	29.962 
06:05	71.5	71.5	71.5	88	67.7	0	0	---	0.00	29.962 
06:10	71.5	71.5	71.5	88	67.7	0	0	---	0.00	29.962 
06:15	71.5	71.5	71.5	88	67.7	0	0	---	0.00	29.971 
06:20	71.5	71.5	71.5	89	68.1	0	0	---	0.00	29.971 
06:25	71.5	71.5	71.5	89	68.1	0	0	---	0.00	29.971 
06:30	71.5	71.5	71.5	89	68.1	0	0	---	0.00	29.975 
06:35	71.5	71.5	71.5	89	68.1	0	0	---	0.00	29.975 
06:40	71.6	71.6	71.6	89	68.2	0	0	---	0.00	29.975 
06:45	71.6	71.6	71.6	89	68.2	0	0	---	0.00	29.975 
06:50	71.6	71.6	71.6	89	68.2	0	0	---	0.00	29.975 
06:55	71.6	71.6	71.6	89	68.2	0	0	---	0.00	29.975 
07:00	71.8	71.8	71.8	89	68.4	0	0	---	0.00	29.961 
07:05	71.8	71.8	71.8	89	68.4	0	1	112	0.00	29.961 
07:10	72.0	72.0	72.0	89	68.6	0	0	---	0.00	29.961 
07:15	72.1	72.1	72.1	89	68.7	0	0	---	0.00	29.963 
07:20	72.1	72.1	72.1	89	68.7	0	0	---	0.00	29.963 
07:25	72.3	72.3	72.3	89	68.9	0	1	112	0.00	29.963 
07:30	72.5	72.5	72.5	89	69.1	0	1	112	0.00	29.961 
07:35	72.7	72.7	72.7	88	68.9	0	0	---	0.00	29.961 
07:40	72.8	72.8	72.8	88	69.0	0	0	---	0.00	29.961 
07:45	73.0	73.0	73.0	88	69.2	0	0	---	0.00	29.971 
07:50	73.0	73.0	73.0	88	69.2	0	0	---	0.00	29.971 
07:55	73.2	73.2	73.2	88	69.4	0	0	---	0.00	29.971 
08:00	73.2	73.2	73.2	88	69.4	0	0	---	0.00	29.978 
08:05	73.2	73.2	73.2	88	69.4	0	0	---	0.00	29.978 
08:10	73.3	73.3	73.3	88	69.5	0	0	---	0.00	29.978 
08:15	73.5	73.5	73.5	88	69.7	0	0	---	0.00	29.979 
08:20	73.5	73.5	73.5	88	69.7	0	0	---	0.00	29.979 
08:25	73.7	73.7	73.7	88	69.9	0	0	---	0.00	29.979 
08:30	73.7	73.7	73.7	88	69.9	0	0	---	0.00	29.989 
08:35	73.9	73.9	73.9	88	70.1	0	0	---	0.00	29.989 
08:40	73.9	73.9	73.9	88	70.1	0	0	---	0.00	29.989 
08:45	74.0	74.0	74.0	88	70.2	0	0	---	0.00	30.008 
08:50	74.0	74.0	74.0	88	70.2	0	0	---	0.00	30.008 
08:55	74.2	74.2	74.2	88	70.4	0	0	---	0.00	30.008 
09:00	74.4	74.4	74.4	88	70.6	0	1	112	0.00	30.005 
09:05	74.6	74.6	74.6	88	70.8	0	1	112	0.00	30.005 
09:10	74.7	74.7	74.7	88	70.9	0	2	112	0.00	30.005 
09:15	75.3	75.3	75.1	87	71.2	1	4	270	0.00	30.019 
09:20	76.0	76.0	76.7	84	70.8	2	4	270	0.00	30.019 
09:25	76.5	76.5	77.6	83	70.9	2	4	292	0.00	30.019 
09:30	76.8	76.8	78.2	81	70.5	2	3	248	0.00	30.027 
09:35	77.0	77.0	78.5	81	70.7	2	6	248	0.00	30.027 
09:40	77.2	77.2	78.9	81	70.9	3	7	248	0.00	30.027 
09:45	76.8	76.8	78.2	82	70.9	3	7	292	0.00	30.034 
09:50	76.3	76.3	77.2	84	71.1	2	6	315	0.00	30.034 
09:55	76.0	76.0	76.7	84	70.8	3	6	315	0.00	30.034 
10:00	75.6	75.6	75.8	86	71.1	2	6	315	0.01	30.042 
10:05	75.3	75.3	75.2	86	70.8	3	6	292	0.00	30.042 
10:10	75.1	75.1	74.9	86	70.6	2	4	292	0.00	30.042 
10:15	74.9	74.9	74.9	85	70.1	3	6	315	0.00	30.036 
10:20	74.6	74.6	74.6	87	70.5	2	6	315	0.00	30.036 
10:25	74.2	74.2	74.2	86	69.7	2	4	338	0.00	30.036 
10:30	73.9	73.9	73.9	86	69.4	2	5	315	0.01	30.026 
10:35	73.2	73.2	73.2	83	67.7	3	6	315	0.00	30.026 
10:40	72.8	72.8	72.8	85	68.0	2	5	270	0.00	30.026 
10:45	72.5	72.5	72.5	86	68.1	2	3	315	0.00	30.018 
10:50	72.5	72.5	72.5	87	68.4	2	5	315	0.00	30.018 
10:55	72.3	72.3	72.3	86	67.9	3	5	292	0.00	30.018 
11:00	72.1	72.1	72.1	86	67.7	3	5	270	0.00	30.013 
11:05	72.1	72.1	72.1	86	67.7	2	4	270	0.00	30.013 
11:10	72.3	72.3	72.3	87	68.2	2	4	270	0.00	30.013 
11:15	72.3	72.3	72.3	86	67.9	2	4	270	0.00	29.999 
11:20	72.5	72.5	72.5	84	67.4	2	4	270	0.00	29.999 
11:25	72.8	72.8	72.8	83	67.3	2	4	270	0.00	29.999 
11:30	73.0	73.0	73.0	82	67.2	2	4	270	0.00	29.988 
11:35	73.3	73.3	73.3	81	67.1	2	5	248	0.00	29.988 
11:40	73.5	73.5	73.5	81	67.3	1	4	248	0.00	29.988 
11:45	73.3	73.3	73.3	81	67.1	1	4	248	0.00	29.968 
11:50	73.5	73.5	73.5	81	67.3	1	2	180	0.00	29.968 
11:55	73.5	73.5	73.5	81	67.3	1	2	202	0.00	29.968 
12:00	73.5	73.5	73.5	81	67.3	1	2	315	0.00	29.984 
12:05	73.5	73.5	73.5	81	67.3	0	2	315	0.00	29.984 
12:10	73.7	73.7	73.7	82	67.9	0	1	315	0.00	29.984 
12:15	73.9	73.9	73.9	82	68.0	0	1	315	0.00	29.987 
12:20	74.0	74.0	74.0	82	68.1	1	3	338	0.00	29.987 
12:25	74.2	74.2	74.2	82	68.3	1	4	68	0.00	29.987 
12:30	74.4	74.4	74.4	81	68.2	1	4	248	0.00	29.969 
12:35	74.6	74.6	74.6	80	68.0	3	7	248	0.01	29.969 
12:40	74.6	74.6	74.6	80	68.0	3	10	270	0.00	29.969 
12:45	74.9	74.9	74.9	79	67.9	1	3	248	0.00	29.965 
12:50	75.1	75.1	76.1	77	67.4	1	3	270	0.00	29.965 
12:55	75.3	75.3	76.3	77	67.6	2	4	270	0.00	29.965 
13:00	75.6	75.6	76.8	76	67.5	2	5	248	0.00	29.948 
13:05	75.8	75.8	77.2	74	66.9	2	5	248	0.00	29.948 
13:10	76.3	76.3	77.9	72	66.6	2	5	248	0.00	29.948 
13:15	76.7	76.7	78.4	70	66.2	2	7	248	0.00	29.944 
13:20	76.7	76.7	78.4	69	65.7	3	6	270	0.00	29.944 
13:25	76.8	76.8	78.6	69	65.8	3	6	248	0.00	29.944 
13:30	76.8	76.8	78.6	67	65.0	4	11	270	0.00	29.917 
13:35	76.8	76.8	78.6	67	65.0	4	10	270	0.00	29.917 
13:40	76.7	76.7	78.5	67	64.9	4	12	248	0.00	29.917 
13:45	76.5	76.5	78.3	68	65.1	2	6	248	0.00	29.889 
13:50	76.7	76.7	78.5	67	64.9	3	6	248	0.00	29.889 
13:55	76.8	76.8	78.6	67	65.0	2	5	292	0.00	29.889 
14:00	77.0	77.0	78.8	67	65.2	2	4	292	0.00	29.939 
14:05	77.2	77.2	79.0	65	64.5	3	5	292	0.00	29.939 
14:10	77.2	77.2	79.0	65	64.5	3	5	270	0.00	29.939 
14:15	77.0	77.0	78.8	66	64.8	2	4	270	0.00	29.948 
14:20	77.0	77.0	78.8	67	65.2	3	5	270	0.00	29.948 
14:25	76.8	76.8	78.6	68	65.4	2	4	315	0.00	29.948 
14:30	76.8	76.8	78.6	69	65.8	1	3	292	0.00	29.947 
14:35	76.8	76.8	78.6	68	65.4	1	3	292	0.00	29.947 
14:40	76.8	76.8	78.6	69	65.8	1	3	315	0.00	29.947 
14:45	76.8	76.8	78.5	70	66.3	0	3	315	0.00	29.938 
14:50	77.0	77.0	78.8	69	66.0	1	3	315	0.00	29.938 
14:55	77.2	77.2	79.0	69	66.2	1	4	292	0.00	29.938 
15:00	77.2	77.2	79.0	68	65.8	1	3	270	0.00	29.940 
15:05	77.0	77.0	78.8	69	66.0	1	3	315	0.00	29.940 
15:10	77.0	77.0	78.8	70	66.4	1	3	315	0.00	29.940 
15:15	76.8	76.8	78.5	70	66.3	1	3	292	0.00	29.954 
15:20	76.8	76.8	78.5	70	66.3	2	4	338	0.00	29.954 
15:25	77.2	77.2	79.0	69	66.2	1	3	270	0.00	29.954 
15:30	77.4	77.4	79.2	68	66.0	1	3	270	0.00	29.940 
15:35	77.6	77.6	79.5	68	66.2	1	2	270	0.00	29.940 
15:40	77.9	77.9	79.8	68	66.5	0	2	270	0.00	29.940 
15:45	78.1	78.1	80.0	66	65.8	1	3	270	0.00	29.928 
15:50	78.5	78.5	80.5	66	66.2	1	2	315	0.00	29.928 
15:55	79.0	79.0	81.0	64	65.8	1	4	248	0.00	29.928 
16:00	79.6	79.6	81.9	66	67.2	1	3	315	0.00	29.924 
16:05	80.5	80.5	82.7	62	66.3	1	4	315	0.00	29.924 
16:10	81.1	81.1	83.5	62	66.8	2	4	292	0.00	29.924 
16:15	80.9	80.9	83.1	61	66.2	2	3	315	0.00	29.925 
16:20	80.7	80.7	82.7	60	65.5	2	4	270	0.00	29.925 
16:25	80.7	80.7	82.9	62	66.4	2	4	248	0.00	29.925 
16:30	81.2	81.2	83.5	61	66.4	2	5	248	0.00	29.934 
16:35	81.4	81.4	83.4	59	65.7	3	5	270	0.00	29.934 
16:40	81.4	81.4	83.6	60	66.2	3	5	270	0.00	29.934 
16:45	81.6	81.6	84.0	61	66.8	2	6	315	0.00	29.935 
16:50	81.8	81.8	84.3	61	67.0	2	5	292	0.00	29.935 
16:55	82.2	82.2	84.7	60	66.9	2	4	315	0.00	29.935 
17:00	82.4	82.4	84.6	58	66.1	2	5	270	0.00	29.936 
17:05	82.8	82.8	85.0	57	66.0	2	4	315	0.00	29.936 
17:10	82.8	82.8	85.2	58	66.5	1	3	315	0.00	29.936 
17:15	82.2	82.2	84.3	58	65.9	2	4	292	0.00	29.941 
17:20	81.2	81.2	83.5	61	66.4	2	5	270	0.00	29.941 
17:25	80.7	80.7	82.9	62	66.4	2	3	315	0.00	29.941 
17:30	80.5	80.5	83.1	65	67.6	1	3	292	0.00	29.946 
17:35	80.3	80.3	82.7	64	67.0	1	4	292	0.00	29.946 
17:40	80.1	80.1	82.4	64	66.8	1	5	315	0.00	29.946 
17:45	79.9	79.9	82.2	65	67.1	1	4	315	0.00	29.949 
17:50	80.1	80.1	82.5	65	67.2	1	3	292	0.00	29.949 
17:55	80.5	80.5	83.1	65	67.6	1	3	338	0.00	29.949 
18:00	80.3	80.3	82.8	65	67.4	2	4	292	0.00	29.952 
18:05	80.3	80.3	82.8	65	67.4	1	4	292	0.00	29.952 
18:10	80.1	80.1	82.5	65	67.2	1	3	292	0.00	29.952 
18:15	79.9	79.9	82.3	66	67.5	1	4	292	0.00	29.951 
18:20	79.8	79.8	82.3	67	67.8	0	2	292	0.00	29.951 
18:25	79.9	79.9	82.5	67	67.9	1	3	292	0.00	29.951 
18:30	79.9	79.9	82.6	68	68.4	0	2	315	0.00	29.950 
18:35	80.1	80.1	82.7	67	68.1	0	1	315	0.00	29.950 
18:40	80.1	80.1	82.9	68	68.6	0	2	315	0.00	29.950 
18:45	79.9	79.9	82.6	68	68.4	0	1	315	0.00	29.949 
18:50	79.9	79.9	82.6	68	68.4	1	3	338	0.00	29.949 
18:55	79.8	79.8	82.5	69	68.7	0	1	270	0.00	29.949 
19:00	79.6	79.6	82.2	69	68.5	0	3	0	0.00	29.936 
19:05	79.8	79.8	82.5	69	68.7	0	2	22	0.00	29.936 
19:10	79.8	79.8	82.5	69	68.7	0	1	22	0.00	29.936 
19:15	79.9	79.9	82.8	70	69.2	0	2	22	0.00	29.932 
19:20	79.8	79.8	82.5	69	68.7	0	1	22	0.00	29.932 
19:25	79.8	79.8	82.6	70	69.1	0	3	90	0.00	29.932 
19:30	79.6	79.6	82.3	70	68.9	1	4	45	0.00	29.930 
19:35	79.4	79.4	81.9	69	68.3	1	6	68	0.00	29.930 
19:40	79.4	79.4	81.9	69	68.3	1	3	112	0.00	29.930 
19:45	79.4	79.4	82.0	70	68.7	1	3	68	0.00	29.930 
19:50	79.4	79.4	82.0	70	68.7	1	4	90	0.00	29.930 
19:55	79.2	79.2	81.8	71	69.0	1	2	90	0.00	29.930 
20:00	79.2	79.2	81.8	71	69.0	0	2	90	0.00	29.934 
20:05	79.0	79.0	81.4	70	68.4	1	4	90	0.00	29.934 
20:10	78.8	78.8	81.1	69	67.7	1	3	112	0.00	29.934 
20:15	78.8	78.8	81.1	70	68.2	1	3	112	0.00	29.936 
20:20	78.6	78.6	80.8	70	68.0	0	2	112	0.00	29.936 
20:25	78.5	78.5	80.8	72	68.7	0	1	112	0.00	29.936 
20:30	78.3	78.3	80.5	72	68.5	0	1	112	0.00	29.935 
20:35	78.3	78.3	80.5	72	68.5	0	2	112	0.00	29.935 
20:40	78.1	78.1	80.2	72	68.3	0	2	112	0.00	29.935 
20:45	78.1	78.1	80.2	72	68.3	0	1	112	0.00	29.940 
20:50	77.9	77.9	79.9	72	68.1	0	2	112	0.00	29.940 
20:55	77.7	77.7	79.7	73	68.3	0	1	112	0.00	29.940 
21:00	77.4	77.4	79.3	73	68.0	0	0	---	0.00	29.937 
21:05	77.2	77.2	79.0	74	68.3	0	0	---	0.00	29.937 
21:10	76.8	76.8	78.4	74	67.9	0	0	---	0.00	29.937 
21:15	76.7	76.7	78.3	75	68.2	0	0	---	0.00	29.939 
21:20	76.5	76.5	78.0	75	68.0	0	0	---	0.00	29.939 
21:25	76.5	76.5	78.0	76	68.4	0	0	---	0.00	29.939 
21:30	76.3	76.3	77.7	76	68.2	0	0	---	0.00	29.941 
21:35	76.3	76.3	77.6	77	68.5	0	0	---	0.00	29.941 
21:40	76.3	76.3	77.6	77	68.5	0	0	---	0.00	29.941 
21:45	76.3	76.3	77.6	77	68.5	0	0	---	0.00	29.949 
21:50	76.1	76.1	77.4	77	68.3	0	0	---	0.00	29.949 
21:55	76.1	76.1	77.4	77	68.3	0	0	---	0.00	29.949 
22:00	76.1	76.1	77.4	77	68.3	0	0	---	0.00	29.953 
22:05	76.1	76.1	77.4	77	68.3	0	0	---	0.00	29.953 
22:10	76.1	76.1	77.4	77	68.3	0	0	---	0.00	29.953 
22:15	76.1	76.1	77.4	77	68.3	0	0	---	0.00	29.963 
22:20	76.1	76.1	77.4	77	68.3	0	0	---	0.00	29.963 
22:25	76.1	76.1	77.3	78	68.7	0	0	---	0.00	29.963 
22:30	76.1	76.1	77.2	79	69.1	0	0	---	0.00	29.968 
22:35	76.1	76.1	77.1	80	69.5	0	0	---	0.00	29.968 
22:40	76.1	76.1	77.1	80	69.5	0	0	---	0.00	29.968 
22:45	76.0	76.0	77.0	80	69.4	0	0	---	0.00	29.968 
22:50	76.0	76.0	77.0	80	69.4	0	0	---	0.00	29.968 
22:55	75.8	75.8	76.7	80	69.2	0	0	---	0.00	29.968 
23:00	75.8	75.8	76.6	81	69.5	0	0	---	0.00	29.969 
23:05	75.6	75.6	76.3	81	69.3	0	0	---	0.00	29.969 
23:10	75.6	75.6	76.3	81	69.3	0	0	---	0.00	29.969 
23:15	75.6	75.6	76.2	82	69.7	0	0	---	0.00	29.968 
23:20	75.6	75.6	76.1	83	70.1	0	0	---	0.00	29.968 
23:25	75.4	75.4	76.1	80	68.8	0	0	---	0.00	29.968 
23:30	75.4	75.4	76.2	79	68.4	0	0	---	0.00	29.969 
23:35	75.4	75.4	76.2	79	68.4	0	1	112	0.00	29.969 
23:40	75.3	75.3	76.0	80	68.7	0	0	---	0.00	29.969 
23:45	75.1	75.1	75.6	81	68.9	0	0	---	0.00	29.965 
23:50	74.9	74.9	74.9	80	68.3	0	0	---	0.00	29.965 
23:55	74.9	74.9	74.9	81	68.7	0	0	---	0.00	29.965 

CoCoRaHS
IN-AL-39
A2 Web Hosting
Creative Commons License
GoDaddy
Look for:

loaded 2017-12-13 15:44:30 • last modified 2010-11-18 10:43:29
Privacy PolicyDisclaimer
• wx.awcolley.com is powered by PmWiki v.2002016 •
• all content (unless otherwise noted) © 2017 A W Colley